sensor_id;sensor_type;location;lat;lon;timestamp;pressure;altitude;pressure_sealevel;temperature;humidity
51928;BME280;37953;52.806;18.270;2022-11-27T00:01:24;101984.63;;;3.06;100.00
51928;BME280;37953;52.806;18.270;2022-11-27T00:03:50;101980.41;;;3.07;100.00
51928;BME280;37953;52.806;18.270;2022-11-27T00:06:20;101982.97;;;3.07;100.00
51928;BME280;37953;52.806;18.270;2022-11-27T00:08:57;101985.53;;;3.07;100.00
51928;BME280;37953;52.806;18.270;2022-11-27T00:11:25;101975.28;;;3.07;100.00
51928;BME280;37953;52.806;18.270;2022-11-27T00:13:51;101978.72;;;3.08;100.00
51928;BME280;37953;52.806;18.270;2022-11-27T00:16:19;101982.16;;;3.08;100.00
51928;BME280;37953;52.806;18.270;2022-11-27T00:18:45;101983.03;;;3.09;100.00
51928;BME280;37953;52.806;18.270;2022-11-27T00:21:17;101985.72;;;3.10;100.00
51928;BME280;37953;52.806;18.270;2022-11-27T00:23:44;101986.53;;;3.09;100.00
51928;BME280;37953;52.806;18.270;2022-11-27T00:26:10;101988.28;;;3.10;100.00
51928;BME280;37953;52.806;18.270;2022-11-27T00:28:36;101992.63;;;3.11;100.00
51928;BME280;37953;52.806;18.270;2022-11-27T00:31:07;101986.69;;;3.12;100.00
51928;BME280;37953;52.806;18.270;2022-11-27T00:33:33;101994.38;;;3.12;100.00
51928;BME280;37953;52.806;18.270;2022-11-27T00:36:03;101989.16;;;3.11;100.00
51928;BME280;37953;52.806;18.270;2022-11-27T00:38:30;101991.00;;;3.13;100.00
51928;BME280;37953;52.806;18.270;2022-11-27T00:41:15;101991.97;;;3.15;100.00
51928;BME280;37953;52.806;18.270;2022-11-27T00:43:41;101991.91;;;3.14;100.00
51928;BME280;37953;52.806;18.270;2022-11-27T00:46:08;101985.88;;;3.13;100.00
51928;BME280;37953;52.806;18.270;2022-11-27T00:48:34;101986.78;;;3.14;100.00
51928;BME280;37953;52.806;18.270;2022-11-27T00:51:02;101992.78;;;3.14;100.00
51928;BME280;37953;52.806;18.270;2022-11-27T00:53:28;101989.34;;;3.14;100.00
51928;BME280;37953;52.806;18.270;2022-11-27T00:56:01;101991.09;;;3.15;100.00
51928;BME280;37953;52.806;18.270;2022-11-27T00:58:27;101985.09;;;3.14;100.00
51928;BME280;37953;52.806;18.270;2022-11-27T01:00:56;101994.53;;;3.15;100.00
51928;BME280;37953;52.806;18.270;2022-11-27T01:03:25;101985.19;;;3.16;100.00
51928;BME280;37953;52.806;18.270;2022-11-27T01:05:52;101987.75;;;3.16;100.00
51928;BME280;37953;52.806;18.270;2022-11-27T01:08:18;101998.91;;;3.16;100.00
51928;BME280;37953;52.806;18.270;2022-11-27T01:10:49;101991.97;;;3.15;100.00
51928;BME280;37953;52.806;18.270;2022-11-27T01:13:15;101984.72;;;3.23;100.00
51928;BME280;37953;52.806;18.270;2022-11-27T01:15:41;101989.69;;;3.20;100.00
51928;BME280;37953;52.806;18.270;2022-11-27T01:18:07;101987.03;;;3.18;100.00
51928;BME280;37953;52.806;18.270;2022-11-27T01:20:37;101999.78;;;3.17;100.00
51928;BME280;37953;52.806;18.270;2022-11-27T01:23:09;101998.19;;;3.19;100.00
51928;BME280;37953;52.806;18.270;2022-11-27T01:25:38;102005.78;;;3.17;100.00
51928;BME280;37953;52.806;18.270;2022-11-27T01:28:07;102004.19;;;3.19;100.00
51928;BME280;37953;52.806;18.270;2022-11-27T01:30:39;102005.16;;;3.21;100.00
51928;BME280;37953;52.806;18.270;2022-11-27T01:33:08;101996.59;;;3.21;100.00
51928;BME280;37953;52.806;18.270;2022-11-27T01:35:36;102004.28;;;3.21;100.00
51928;BME280;37953;52.806;18.270;2022-11-27T02:08:28;102002.06;;;3.27;100.00
51928;BME280;37953;52.806;18.270;2022-11-27T02:11:24;101999.59;;;3.29;100.00
51928;BME280;37953;52.806;18.270;2022-11-27T02:14:20;102000.38;;;3.28;100.00
51928;BME280;37953;52.806;18.270;2022-11-27T02:17:21;102014.19;;;3.30;100.00
51928;BME280;37953;52.806;18.270;2022-11-27T02:28:38;101999.75;;;3.32;100.00
51928;BME280;37953;52.806;18.270;2022-11-27T02:33:42;102004.81;;;3.30;100.00
51928;BME280;37953;52.806;18.270;2022-11-27T02:36:13;102012.59;;;3.32;100.00
51928;BME280;37953;52.806;18.270;2022-11-27T02:39:06;102012.59;;;3.32;100.00
51928;BME280;37953;52.806;18.270;2022-11-27T02:41:49;102011.81;;;3.33;100.00
51928;BME280;37953;52.806;18.270;2022-11-27T02:44:19;102007.47;;;3.32;100.00
51928;BME280;37953;52.806;18.270;2022-11-27T02:46:47;102008.28;;;3.31;100.00
51928;BME280;37953;52.806;18.270;2022-11-27T02:49:15;102008.28;;;3.31;100.00
51928;BME280;37953;52.806;18.270;2022-11-27T02:51:53;102010.91;;;3.32;100.00
51928;BME280;37953;52.806;18.270;2022-11-27T02:54:27;102008.34;;;3.32;100.00
51928;BME280;37953;52.806;18.270;2022-11-27T02:56:55;102013.47;;;3.32;100.00
51928;BME280;37953;52.806;18.270;2022-11-27T02:59:25;102008.34;;;3.32;100.00
51928;BME280;37953;52.806;18.270;2022-11-27T03:01:56;102005.72;;;3.31;100.00
51928;BME280;37953;52.806;18.270;2022-11-27T03:04:32;102009.25;;;3.33;100.00
51928;BME280;37953;52.806;18.270;2022-11-27T03:07:05;102010.84;;;3.31;100.00
51928;BME280;37953;52.806;18.270;2022-11-27T03:09:38;102010.91;;;3.32;100.00
51928;BME280;37953;52.806;18.270;2022-11-27T03:12:09;102009.25;;;3.33;100.00
51928;BME280;37953;52.806;18.270;2022-11-27T03:14:38;102008.34;;;3.32;100.00
51928;BME280;37953;52.806;18.270;2022-11-27T03:20:24;102008.53;;;3.35;100.00
51928;BME280;37953;52.806;18.270;2022-11-27T03:23:00;102008.44;;;3.34;100.00
51928;BME280;37953;52.806;18.270;2022-11-27T03:25:26;102016.16;;;3.34;100.00
51928;BME280;37953;52.806;18.270;2022-11-27T03:28:07;102005.88;;;3.34;100.00
51928;BME280;37953;52.806;18.270;2022-11-27T03:30:35;102005.00;;;3.33;100.00
51928;BME280;37953;52.806;18.270;2022-11-27T03:33:01;101997.28;;;3.33;100.00
51928;BME280;37953;52.806;18.270;2022-11-27T03:35:28;102006.75;;;3.34;100.00
51928;BME280;37953;52.806;18.270;2022-11-27T03:37:55;102010.13;;;3.33;100.00
51928;BME280;37953;52.806;18.270;2022-11-27T03:40:48;102011.00;;;3.34;100.00
51928;BME280;37953;52.806;18.270;2022-11-27T03:43:19;102010.22;;;3.35;100.00
51928;BME280;37953;52.806;18.270;2022-11-27T03:46:04;102005.00;;;3.33;100.00
51928;BME280;37953;52.806;18.270;2022-11-27T03:51:38;102003.50;;;3.37;100.00
51928;BME280;37953;52.806;18.270;2022-11-27T03:54:33;102003.50;;;3.37;100.00
51928;BME280;37953;52.806;18.270;2022-11-27T03:57:07;101997.38;;;3.35;100.00
51928;BME280;37953;52.806;18.270;2022-11-27T03:59:51;101994.00;;;3.36;100.00
51928;BME280;37953;52.806;18.270;2022-11-27T04:02:43;101994.97;;;3.38;100.00
51928;BME280;37953;52.806;18.270;2022-11-27T04:05:15;101999.25;;;3.37;100.00
51928;BME280;37953;52.806;18.270;2022-11-27T04:07:41;101987.19;;;3.36;100.00
51928;BME280;37953;52.806;18.270;2022-11-27T04:10:08;101992.31;;;3.36;100.00
51928;BME280;37953;52.806;18.270;2022-11-27T04:12:34;101994.00;;;3.36;100.00
51928;BME280;37953;52.806;18.270;2022-11-27T04:15:00;101998.34;;;3.37;100.00
51928;BME280;37953;52.806;18.270;2022-11-27T04:17:27;101995.78;;;3.37;100.00
51928;BME280;37953;52.806;18.270;2022-11-27T04:19:53;101997.53;;;3.38;100.00
51928;BME280;37953;52.806;18.270;2022-11-27T04:22:19;102002.69;;;3.38;100.00
51928;BME280;37953;52.806;18.270;2022-11-27T04:24:45;101997.53;;;3.38;100.00
51928;BME280;37953;52.806;18.270;2022-11-27T04:27:11;101992.41;;;3.38;100.00
51928;BME280;37953;52.806;18.270;2022-11-27T04:29:37;101988.16;;;3.38;100.00
51928;BME280;37953;52.806;18.270;2022-11-27T04:32:03;101988.16;;;3.38;100.00
51928;BME280;37953;52.806;18.270;2022-11-27T04:34:30;101977.00;;;3.38;100.00
51928;BME280;37953;52.806;18.270;2022-11-27T04:36:56;101978.78;;;3.39;100.00
51928;BME280;37953;52.806;18.270;2022-11-27T04:39:22;101972.72;;;3.38;100.00
51928;BME280;37953;52.806;18.270;2022-11-27T04:41:48;101967.59;;;3.38;100.00
51928;BME280;37953;52.806;18.270;2022-11-27T04:44:20;101963.38;;;3.39;100.00
51928;BME280;37953;52.806;18.270;2022-11-27T04:46:48;101963.28;;;3.37;100.00
51928;BME280;37953;52.806;18.270;2022-11-27T04:49:14;101958.22;;;3.39;100.00
51928;BME280;37953;52.806;18.270;2022-11-27T04:51:40;101953.09;;;3.39;100.00
51928;BME280;37953;52.806;18.270;2022-11-27T04:54:06;101949.63;;;3.38;100.00
51928;BME280;37953;52.806;18.270;2022-11-27T04:56:32;101960.00;;;3.40;100.00
51928;BME280;37953;52.806;18.270;2022-11-27T04:58:58;101978.84;;;3.40;100.00
51928;BME280;37953;52.806;18.270;2022-11-27T05:01:23;101995.06;;;3.39;100.00
51928;BME280;37953;52.806;18.270;2022-11-27T05:03:49;101988.09;;;3.37;100.00
51928;BME280;37953;52.806;18.270;2022-11-27T05:06:15;101972.69;;;3.37;100.00
51928;BME280;37953;52.806;18.270;2022-11-27T05:08:41;101968.31;;;3.36;100.00
51928;BME280;37953;52.806;18.270;2022-11-27T05:11:10;101977.00;;;3.38;100.00
51928;BME280;37953;52.806;18.270;2022-11-27T05:13:42;101971.84;;;3.38;100.00
51928;BME280;37953;52.806;18.270;2022-11-27T05:16:08;101956.44;;;3.38;100.00
51928;BME280;37953;52.806;18.270;2022-11-27T05:18:34;101953.97;;;3.39;100.00
51928;BME280;37953;52.806;18.270;2022-11-27T05:21:05;101965.13;;;3.40;100.00
51928;BME280;37953;52.806;18.270;2022-11-27T05:23:32;101962.66;;;3.41;100.00
51928;BME280;37953;52.806;18.270;2022-11-27T05:25:58;101963.44;;;3.40;100.00
51928;BME280;37953;52.806;18.270;2022-11-27T05:28:25;101966.00;;;3.40;100.00
51928;BME280;37953;52.806;18.270;2022-11-27T05:30:50;101965.22;;;3.41;100.00
51928;BME280;37953;52.806;18.270;2022-11-27T05:33:17;101962.66;;;3.41;100.00
51928;BME280;37953;52.806;18.270;2022-11-27T05:35:44;101962.75;;;3.43;100.00
51928;BME280;37953;52.806;18.270;2022-11-27T05:38:14;101970.50;;;3.44;100.00
51928;BME280;37953;52.806;18.270;2022-11-27T05:40:39;101980.00;;;3.45;100.00
51928;BME280;37953;52.806;18.270;2022-11-27T05:43:05;101965.47;;;3.46;100.00
51928;BME280;37953;52.806;18.270;2022-11-27T05:45:51;101966.44;;;3.48;100.00
51928;BME280;37953;52.806;18.270;2022-11-27T05:48:23;101964.59;;;3.45;100.00
51928;BME280;37953;52.806;18.270;2022-11-27T05:50:52;101968.81;;;3.45;100.00
51928;BME280;37953;52.806;18.270;2022-11-27T05:53:35;101966.44;;;3.48;100.00
51928;BME280;37953;52.806;18.270;2022-11-27T05:56:11;101968.13;;;3.47;100.00
51928;BME280;37953;52.806;18.270;2022-11-27T05:58:37;101979.09;;;3.45;100.00
51928;BME280;37953;52.806;18.270;2022-11-27T06:01:04;101980.00;;;3.45;100.00
51928;BME280;37953;52.806;18.270;2022-11-27T06:03:34;101974.88;;;3.45;100.00
51928;BME280;37953;52.806;18.270;2022-11-27T06:06:08;101978.22;;;3.44;100.00
51928;BME280;37953;52.806;18.270;2022-11-27T06:08:42;101979.09;;;3.45;100.00
51928;BME280;37953;52.806;18.270;2022-11-27T06:11:17;101976.47;;;3.43;100.00
51928;BME280;37953;52.806;18.270;2022-11-27T06:13:46;101984.16;;;3.43;100.00
51928;BME280;37953;52.806;18.270;2022-11-27T06:16:20;101980.78;;;3.44;100.00
51928;BME280;37953;52.806;18.270;2022-11-27T06:18:51;101975.66;;;3.44;100.00
51928;BME280;37953;52.806;18.270;2022-11-27T06:21:18;101980.78;;;3.44;100.00
51928;BME280;37953;52.806;18.270;2022-11-27T06:23:48;101983.28;;;3.43;100.00
51928;BME280;37953;52.806;18.270;2022-11-27T06:26:25;101978.22;;;3.44;100.00
51928;BME280;37953;52.806;18.270;2022-11-27T06:28:56;101984.22;;;3.45;100.00
51928;BME280;37953;52.806;18.270;2022-11-27T06:31:30;101990.19;;;3.44;100.00
51928;BME280;37953;52.806;18.270;2022-11-27T06:33:57;101988.50;;;3.44;100.00
51928;BME280;37953;52.806;18.270;2022-11-27T06:36:29;101990.44;;;3.49;100.00
51928;BME280;37953;52.806;18.270;2022-11-27T06:38:56;101987.97;;;3.50;100.00
51928;BME280;37953;52.806;18.270;2022-11-27T06:41:23;101994.94;;;3.53;100.00
51928;BME280;37953;52.806;18.270;2022-11-27T06:43:53;101983.97;;;3.55;100.00
51928;BME280;37953;52.806;18.270;2022-11-27T06:46:24;101984.25;;;3.60;100.00
51928;BME280;37953;52.806;18.270;2022-11-27T06:48:52;101982.69;;;3.63;100.00
51928;BME280;37953;52.806;18.270;2022-11-27T06:51:33;101970.03;;;3.66;100.00
51928;BME280;37953;52.806;18.270;2022-11-27T06:54:00;101969.13;;;3.66;100.00
51928;BME280;37953;52.806;18.270;2022-11-27T06:56:28;101975.31;;;3.70;100.00
51928;BME280;37953;52.806;18.270;2022-11-27T06:59:00;101972.84;;;3.71;100.00
51928;BME280;37953;52.806;18.270;2022-11-27T07:01:28;101968.59;;;3.72;100.00
51928;BME280;37953;52.806;18.270;2022-11-27T07:03:55;101972.13;;;3.74;100.00
51928;BME280;37953;52.806;18.270;2022-11-27T07:06:23;101979.94;;;3.75;100.00
51928;BME280;37953;52.806;18.270;2022-11-27T07:08:50;101986.75;;;3.75;100.00
51928;BME280;37953;52.806;18.270;2022-11-27T07:11:19;101985.84;;;3.74;100.00
51928;BME280;37953;52.806;18.270;2022-11-27T07:13:46;101988.44;;;3.74;100.00
51928;BME280;37953;52.806;18.270;2022-11-27T07:16:17;101987.75;;;3.77;100.00
51928;BME280;37953;52.806;18.270;2022-11-27T07:18:48;101982.66;;;3.78;100.00
51928;BME280;37953;52.806;18.270;2022-11-27T07:21:20;101978.38;;;3.79;100.00
51928;BME280;37953;52.806;18.270;2022-11-27T07:23:47;101972.47;;;3.80;100.00
51928;BME280;37953;52.806;18.270;2022-11-27T07:26:16;101970.03;;;3.83;100.00
51928;BME280;37953;52.806;18.270;2022-11-27T07:28:43;101964.03;;;3.82;100.00
51928;BME280;37953;52.806;18.270;2022-11-27T07:31:14;101971.94;;;3.85;100.00
51928;BME280;37953;52.806;18.270;2022-11-27T07:33:40;101977.84;;;3.84;100.00
51928;BME280;37953;52.806;18.270;2022-11-27T07:36:09;101981.28;;;3.85;100.00
51928;BME280;37953;52.806;18.270;2022-11-27T07:38:35;101983.09;;;3.86;100.00
51928;BME280;37953;52.806;18.270;2022-11-27T07:41:02;101985.66;;;3.86;100.00
51928;BME280;37953;52.806;18.270;2022-11-27T07:43:30;101993.38;;;3.86;100.00
51928;BME280;37953;52.806;18.270;2022-11-27T07:45:56;101995.94;;;3.86;100.00
51928;BME280;37953;52.806;18.270;2022-11-27T07:48:22;101994.25;;;3.86;100.00
51928;BME280;37953;52.806;18.270;2022-11-27T07:50:48;101995.06;;;3.85;100.00
51928;BME280;37953;52.806;18.270;2022-11-27T07:53:15;101987.41;;;3.87;100.00
51928;BME280;37953;52.806;18.270;2022-11-27T07:55:41;101991.75;;;3.88;100.00
51928;BME280;37953;52.806;18.270;2022-11-27T07:58:07;101989.28;;;3.90;100.00
51928;BME280;37953;52.806;18.270;2022-11-27T08:00:34;101978.19;;;3.91;100.00
51928;BME280;37953;52.806;18.270;2022-11-27T08:03:00;101977.41;;;3.92;100.00
51928;BME280;37953;52.806;18.270;2022-11-27T08:05:27;101974.88;;;3.93;100.00
51928;BME280;37953;52.806;18.270;2022-11-27T08:07:53;101978.28;;;3.92;100.00
51928;BME280;37953;52.806;18.270;2022-11-27T08:10:21;101982.69;;;3.95;100.00
51928;BME280;37953;52.806;18.270;2022-11-27T08:12:47;101986.97;;;3.94;100.00
51928;BME280;37953;52.806;18.270;2022-11-27T08:15:13;101988.72;;;3.95;100.00
51928;BME280;37953;52.806;18.270;2022-11-27T08:17:39;101989.59;;;3.96;100.00
51928;BME280;37953;52.806;18.270;2022-11-27T08:20:06;101992.97;;;3.95;100.00
51928;BME280;37953;52.806;18.270;2022-11-27T08:22:32;101993.06;;;3.96;100.00
51928;BME280;37953;52.806;18.270;2022-11-27T08:24:58;101985.34;;;3.96;100.00
51928;BME280;37953;52.806;18.270;2022-11-27T08:27:24;101990.50;;;3.96;100.00
51928;BME280;37953;52.806;18.270;2022-11-27T08:29:50;101991.38;;;3.97;100.00
51928;BME280;37953;52.806;18.270;2022-11-27T08:32:16;101995.78;;;3.99;100.00
51928;BME280;37953;52.806;18.270;2022-11-27T08:34:42;101995.00;;;4.00;100.00
51928;BME280;37953;52.806;18.270;2022-11-27T08:37:17;102004.56;;;4.03;100.00
51928;BME280;37953;52.806;18.270;2022-11-27T08:40:09;102014.03;;;4.04;100.00
51928;BME280;37953;52.806;18.270;2022-11-27T08:42:35;102012.28;;;4.03;100.00
51928;BME280;37953;52.806;18.270;2022-11-27T08:45:00;102014.84;;;4.03;100.00
51928;BME280;37953;52.806;18.270;2022-11-27T08:47:27;102020.00;;;4.03;100.00
51928;BME280;37953;52.806;18.270;2022-11-27T08:49:52;102015.72;;;4.03;100.00
51928;BME280;37953;52.806;18.270;2022-11-27T08:52:19;102015.81;;;4.05;100.00
51928;BME280;37953;52.806;18.270;2022-11-27T08:54:45;102013.34;;;4.06;100.00
51928;BME280;37953;52.806;18.270;2022-11-27T08:57:11;102021.13;;;4.08;100.00
51928;BME280;37953;52.806;18.270;2022-11-27T08:59:37;102021.13;;;4.08;100.00
51928;BME280;37953;52.806;18.270;2022-11-27T09:02:03;102021.22;;;4.10;100.00
51928;BME280;37953;52.806;18.270;2022-11-27T09:04:29;102020.38;;;4.11;100.00
51928;BME280;37953;52.806;18.270;2022-11-27T09:06:55;102014.47;;;4.12;100.00
51928;BME280;37953;52.806;18.270;2022-11-27T09:09:21;102015.44;;;4.14;100.00
51928;BME280;37953;52.806;18.270;2022-11-27T09:11:47;102015.44;;;4.14;100.00
51928;BME280;37953;52.806;18.270;2022-11-27T09:14:13;102016.31;;;4.14;100.00
51928;BME280;37953;52.806;18.270;2022-11-27T09:16:39;102010.38;;;4.15;100.00
51928;BME280;37953;52.806;18.270;2022-11-27T09:19:05;102009.56;;;4.16;100.00
51928;BME280;37953;52.806;18.270;2022-11-27T09:21:31;102018.16;;;4.17;100.00
51928;BME280;37953;52.806;18.270;2022-11-27T09:23:58;102029.34;;;4.17;100.00
51928;BME280;37953;52.806;18.270;2022-11-27T09:26:26;102025.09;;;4.18;100.00
51928;BME280;37953;52.806;18.270;2022-11-27T09:28:58;102023.47;;;4.20;100.00
51928;BME280;37953;52.806;18.270;2022-11-27T09:31:24;102019.13;;;4.19;100.00
51928;BME280;37953;52.806;18.270;2022-11-27T09:33:50;102021.00;;;4.21;100.00
51928;BME280;37953;52.806;18.270;2022-11-27T09:36:19;102020.19;;;4.22;100.00
51928;BME280;37953;52.806;18.270;2022-11-27T09:38:46;102018.47;;;4.23;100.00
51928;BME280;37953;52.806;18.270;2022-11-27T09:46:40;102001.63;;;4.28;100.00
51928;BME280;37953;52.806;18.270;2022-11-27T09:49:18;101993.97;;;4.29;100.00
51928;BME280;37953;52.806;18.270;2022-11-27T09:57:24;101977.84;;;4.32;100.00
51928;BME280;37953;52.806;18.270;2022-11-27T10:00:17;101970.25;;;4.35;100.00
51928;BME280;37953;52.806;18.270;2022-11-27T10:02:43;101964.22;;;4.35;100.00
51928;BME280;37953;52.806;18.270;2022-11-27T10:05:25;101965.19;;;4.37;100.00
51928;BME280;37953;52.806;18.270;2022-11-27T10:08:29;101967.03;;;4.39;100.00
51928;BME280;37953;52.806;18.270;2022-11-27T10:11:40;101968.81;;;4.40;100.00
51928;BME280;37953;52.806;18.270;2022-11-27T10:17:18;101975.00;;;4.44;100.00
51928;BME280;37953;52.806;18.270;2022-11-27T10:19:54;101963.00;;;4.44;100.00
51928;BME280;37953;52.806;18.270;2022-11-27T10:30:19;101972.81;;;4.52;100.00
51928;BME280;37953;52.806;18.270;2022-11-27T10:32:51;101968.47;;;4.51;100.00
51928;BME280;37953;52.806;18.270;2022-11-27T10:35:28;101973.69;;;4.52;100.00
51928;BME280;37953;52.806;18.270;2022-11-27T10:38:08;101970.41;;;4.55;100.00
51928;BME280;37953;52.806;18.270;2022-11-27T10:43:23;101959.22;;;4.54;100.00
51928;BME280;37953;52.806;18.270;2022-11-27T10:45:57;101961.06;;;4.57;100.00
51928;BME280;37953;52.806;18.270;2022-11-27T10:48:42;101959.47;;;4.59;100.00
51928;BME280;37953;52.806;18.270;2022-11-27T10:51:20;101962.13;;;4.60;100.00
51928;BME280;37953;52.806;18.270;2022-11-27T10:53:53;101958.72;;;4.61;100.00
51928;BME280;37953;52.806;18.270;2022-11-27T10:56:51;101952.88;;;4.64;100.00
51928;BME280;37953;52.806;18.270;2022-11-27T10:59:29;101955.59;;;4.67;100.00
51928;BME280;37953;52.806;18.270;2022-11-27T11:01:58;101942.81;;;4.68;100.00
51928;BME280;37953;52.806;18.270;2022-11-27T11:04:29;101947.13;;;4.69;100.00
51928;BME280;37953;52.806;18.270;2022-11-27T11:06:57;101949.78;;;4.71;100.00
51928;BME280;37953;52.806;18.270;2022-11-27T11:09:28;101942.16;;;4.73;100.00
51928;BME280;37953;52.806;18.270;2022-11-27T11:14:50;101940.59;;;4.76;100.00
51928;BME280;37953;52.806;18.270;2022-11-27T11:17:27;101933.81;;;4.78;100.00
51928;BME280;37953;52.806;18.270;2022-11-27T11:20:21;101933.91;;;4.80;100.00
51928;BME280;37953;52.806;18.270;2022-11-27T11:22:50;101928.75;;;4.80;100.00
51928;BME280;37953;52.806;18.270;2022-11-27T11:25:20;101924.56;;;4.82;100.00
51928;BME280;37953;52.806;18.270;2022-11-27T11:27:49;101921.13;;;4.81;100.00
51928;BME280;37953;52.806;18.270;2022-11-27T11:30:21;101919.50;;;4.83;100.00
51928;BME280;37953;52.806;18.270;2022-11-27T11:32:50;101916.94;;;4.83;100.00
51928;BME280;37953;52.806;18.270;2022-11-27T11:35:25;101914.44;;;4.85;100.00
51928;BME280;37953;52.806;18.270;2022-11-27T11:37:52;101922.16;;;4.85;100.00
51928;BME280;37953;52.806;18.270;2022-11-27T11:40:31;101917.97;;;4.87;100.00
51928;BME280;37953;52.806;18.270;2022-11-27T11:43:03;101912.00;;;4.88;100.00
51928;BME280;37953;52.806;18.270;2022-11-27T11:45:42;101910.31;;;4.88;100.00
51928;BME280;37953;52.806;18.270;2022-11-27T11:48:26;101914.59;;;4.88;100.00
51928;BME280;37953;52.806;18.270;2022-11-27T12:00:21;101901.94;;;4.93;100.00
51928;BME280;37953;52.806;18.270;2022-11-27T12:03:27;101907.25;;;4.96;100.00
51928;BME280;37953;52.806;18.270;2022-11-27T12:06:18;101902.88;;;4.95;100.00
51928;BME280;37953;52.806;18.270;2022-11-27T12:09:23;101907.28;;;4.97;100.00
51928;BME280;37953;52.806;18.270;2022-11-27T12:15:02;101895.31;;;4.98;100.00
51928;BME280;37953;52.806;18.270;2022-11-27T12:18:06;101899.72;;;5.00;100.00
51928;BME280;37953;52.806;18.270;2022-11-27T12:21:13;101904.16;;;5.03;100.00
51928;BME280;37953;52.806;18.270;2022-11-27T12:29:31;101892.13;;;5.03;100.00
51928;BME280;37953;52.806;18.270;2022-11-27T12:34:57;101888.84;;;5.06;100.00
51928;BME280;37953;52.806;18.270;2022-11-27T12:44:08;101882.13;;;5.09;100.00
51928;BME280;37953;52.806;18.270;2022-11-27T12:49:46;101891.69;;;5.12;100.00
51928;BME280;37953;52.806;18.270;2022-11-27T12:52:55;101888.31;;;5.13;100.00
51928;BME280;37953;52.806;18.270;2022-11-27T12:55:36;101887.44;;;5.13;100.00
51928;BME280;37953;52.806;18.270;2022-11-27T12:58:31;101889.19;;;5.14;100.00
51928;BME280;37953;52.806;18.270;2022-11-27T13:01:04;101888.31;;;5.13;100.00
51928;BME280;37953;52.806;18.270;2022-11-27T13:06:45;101886.72;;;5.15;100.00
51928;BME280;37953;52.806;18.270;2022-11-27T13:09:41;101889.38;;;5.17;100.00
51928;BME280;37953;52.806;18.270;2022-11-27T13:12:48;101886.84;;;5.18;100.00
51928;BME280;37953;52.806;18.270;2022-11-27T13:18:46;101883.56;;;5.21;100.00
51928;BME280;37953;52.806;18.270;2022-11-27T13:21:26;101887.00;;;5.21;100.00
51928;BME280;37953;52.806;18.270;2022-11-27T13:24:01;101888.69;;;5.21;100.00
51928;BME280;37953;52.806;18.270;2022-11-27T13:26:32;101882.59;;;5.19;100.00
51928;BME280;37953;52.806;18.270;2022-11-27T13:29:03;101881.78;;;5.20;100.00
51928;BME280;37953;52.806;18.270;2022-11-27T13:31:37;101886.13;;;5.21;100.00
51928;BME280;37953;52.806;18.270;2022-11-27T13:34:07;101878.44;;;5.22;100.00
51928;BME280;37953;52.806;18.270;2022-11-27T13:37:07;101869.09;;;5.24;100.00
51928;BME280;37953;52.806;18.270;2022-11-27T13:39:45;101873.47;;;5.25;100.00
51928;BME280;37953;52.806;18.270;2022-11-27T13:44:42;101868.34;;;5.27;100.00
51928;BME280;37953;52.806;18.270;2022-11-27T13:47:19;101869.31;;;5.29;100.00
51928;BME280;37953;52.806;18.270;2022-11-27T13:50:01;101865.06;;;5.29;100.00
51928;BME280;37953;52.806;18.270;2022-11-27T13:52:30;101868.50;;;5.30;100.00
51928;BME280;37953;52.806;18.270;2022-11-27T13:55:01;101860.88;;;5.32;100.00
51928;BME280;37953;52.806;18.270;2022-11-27T13:57:35;101872.91;;;5.33;100.00
51928;BME280;37953;52.806;18.270;2022-11-27T14:00:09;101868.63;;;5.33;100.00
51928;BME280;37953;52.806;18.270;2022-11-27T14:05:14;101880.72;;;5.34;100.00
51928;BME280;37953;52.806;18.270;2022-11-27T14:07:43;101881.69;;;5.36;100.00
51928;BME280;37953;52.806;18.270;2022-11-27T14:10:15;101888.59;;;5.37;100.00
51928;BME280;37953;52.806;18.270;2022-11-27T14:13:11;101881.81;;;5.39;100.00
51928;BME280;37953;52.806;18.270;2022-11-27T14:15:39;101886.00;;;5.37;100.00
51928;BME280;37953;52.806;18.270;2022-11-27T14:20:57;101882.72;;;5.40;100.00
51928;BME280;37953;52.806;18.270;2022-11-27T14:23:49;101884.38;;;5.39;100.00
51928;BME280;37953;52.806;18.270;2022-11-27T14:26:22;101874.09;;;5.39;100.00
51928;BME280;37953;52.806;18.270;2022-11-27T14:28:53;101874.03;;;5.38;100.00
51928;BME280;37953;52.806;18.270;2022-11-27T14:31:32;101882.72;;;5.40;100.00
51928;BME280;37953;52.806;18.270;2022-11-27T14:34:03;101876.63;;;5.38;100.00
51928;BME280;37953;52.806;18.270;2022-11-27T14:36:34;101882.72;;;5.40;100.00
51928;BME280;37953;52.806;18.270;2022-11-27T14:39:06;101878.38;;;5.39;100.00
51928;BME280;37953;52.806;18.270;2022-11-27T14:41:35;101880.06;;;5.38;100.00
51928;BME280;37953;52.806;18.270;2022-11-27T14:44:06;101871.50;;;5.39;100.00
51928;BME280;37953;52.806;18.270;2022-11-27T14:46:39;101873.22;;;5.39;100.00
51928;BME280;37953;52.806;18.270;2022-11-27T14:49:13;101872.41;;;5.40;100.00
51928;BME280;37953;52.806;18.270;2022-11-27T14:51:46;101866.34;;;5.39;100.00
51928;BME280;37953;52.806;18.270;2022-11-27T14:54:34;101865.59;;;5.42;100.00
51928;BME280;37953;52.806;18.270;2022-11-27T14:57:04;101858.63;;;5.39;100.00
51928;BME280;37953;52.806;18.270;2022-11-27T14:59:33;101856.03;;;5.39;100.00
51928;BME280;37953;52.806;18.270;2022-11-27T15:07:27;101848.38;;;5.41;100.00
51928;BME280;37953;52.806;18.270;2022-11-27T15:09:55;101845.72;;;5.39;100.00
51928;BME280;37953;52.806;18.270;2022-11-27T15:12:26;101846.66;;;5.40;100.00